Time;durP1;ratioP1;P1;durP2;ratioP2;P2;SDS_P1;SDS_P2;PMS_P1;PMS_P2;Temp;Humidity;BMP_temperature;BMP_pressure;BME280_temperature;BME280_humidity;BME280_pressure;Samples;Min_cycle;Max_cycle;Signal;HPM_P1;HPM_P2
2020/12/01 00:01:27;;;;;;;35.43;14.05;;;;;;;-1.59;81.12;100452.53;1654156;86;22784;-76
2020/12/01 00:03:55;;;;;;;30.92;14.80;;;;;;;-1.63;81.20;100450.48;1654143;86;21196;-76
2020/12/01 00:06:24;;;;;;;33.35;14.45;;;;;;;-1.68;81.50;100455.98;1654060;86;21222;-75
2020/12/01 00:08:51;;;;;;;34.10;14.20;;;;;;;-1.67;81.89;100452.78;1654055;86;20957;-77
2020/12/01 00:11:19;;;;;;;36.15;14.87;;;;;;;-1.67;82.58;100453.60;1653957;86;21508;-77
2020/12/01 00:13:47;;;;;;;34.95;12.80;;;;;;;-1.66;82.86;100457.13;1654146;86;21183;-76
2020/12/01 00:16:15;;;;;;;27.50;13.38;;;;;;;-1.71;82.61;100459.62;1653860;86;21006;-77
2020/12/01 00:18:43;;;;;;;30.95;14.65;;;;;;;-1.78;82.70;100458.34;1653786;86;21070;-77
2020/12/01 00:21:15;;;;;;;28.73;13.95;;;;;;;-1.74;83.07;100465.47;1653771;86;21081;-76
2020/12/01 00:23:43;;;;;;;28.95;13.13;;;;;;;-1.68;83.53;100466.76;1654231;86;21117;-76
2020/12/01 00:26:11;;;;;;;32.58;13.95;;;;;;;-1.65;83.29;100468.20;1654085;86;21520;-76
2020/12/01 00:28:38;;;;;;;29.40;13.38;;;;;;;-1.64;83.24;100465.81;1653751;85;21509;-76
2020/12/01 00:31:06;;;;;;;27.48;13.08;;;;;;;-1.60;83.28;100468.38;1660024;86;21136;-76
2020/12/01 00:33:33;;;;;;;32.80;13.75;;;;;;;-1.56;83.79;100465.57;1661183;86;21121;-76
2020/12/01 00:36:01;;;;;;;24.30;11.12;;;;;;;-1.52;83.70;100460.58;1661022;86;21081;-79
2020/12/01 00:38:29;;;;;;;30.50;13.68;;;;;;;-1.52;83.48;100454.67;1648204;86;21507;-79
2020/12/01 00:40:56;;;;;;;30.75;13.83;;;;;;;-1.50;83.39;100457.98;1658971;86;21014;-78
2020/12/01 00:43:24;;;;;;;26.93;13.25;;;;;;;-1.48;83.32;100452.38;1660249;86;21615;-78
2020/12/01 00:45:52;;;;;;;28.07;12.40;;;;;;;-1.41;83.42;100455.34;1667559;84;21077;-78
2020/12/01 00:48:20;;;;;;;25.08;12.05;;;;;;;-1.36;83.31;100445.27;1660942;86;20951;-78
2020/12/01 00:50:48;;;;;;;25.45;12.40;;;;;;;-1.34;82.93;100448.06;1660868;86;21923;-78
2020/12/01 00:53:16;;;;;;;25.37;12.85;;;;;;;-1.34;82.79;100446.71;1660985;86;21128;-77
2020/12/01 00:55:45;;;;;;;29.07;12.85;;;;;;;-1.35;82.67;100453.14;1660589;86;21006;-77
2020/12/01 00:58:13;;;;;;;31.87;13.15;;;;;;;-1.35;82.63;100457.18;1661209;86;22002;-78
2020/12/01 01:00:43;;;;;;;28.92;13.30;;;;;;;-1.35;82.65;100457.18;1658067;86;21013;-77
2020/12/01 01:03:12;;;;;;;33.18;14.68;;;;;;;-1.35;82.56;100459.88;1660981;86;21380;-82
2020/12/01 01:05:41;;;;;;;32.63;13.70;;;;;;;-1.38;82.53;100453.57;1661028;86;21519;-79
2020/12/01 01:08:09;;;;;;;33.73;15.75;;;;;;;-1.40;82.45;100460.21;1661275;85;21092;-79
2020/12/01 01:10:39;;;;;;;33.30;14.60;;;;;;;-1.42;82.52;100460.43;1661086;86;20985;-80
2020/12/01 01:13:09;;;;;;;29.75;14.63;;;;;;;-1.42;82.73;100452.87;1661208;86;20970;-79
2020/12/01 01:15:37;;;;;;;32.23;15.43;;;;;;;-1.40;82.85;100461.04;1661191;86;21224;-81
2020/12/01 01:18:04;;;;;;;33.48;14.47;;;;;;;-1.39;82.93;100458.66;1660964;86;21615;-81
2020/12/01 01:20:32;;;;;;;30.82;13.68;;;;;;;-1.41;82.94;100457.21;1661177;86;21049;-81
2020/12/01 01:22:59;;;;;;;25.68;12.65;;;;;;;-1.45;83.00;100453.30;1661196;86;21081;-81
2020/12/01 01:25:27;;;;;;;26.97;12.63;;;;;;;-1.45;83.17;100443.35;1661223;85;21512;-81
2020/12/01 01:27:55;;;;;;;24.95;12.28;;;;;;;-1.39;83.27;100445.70;1660945;85;21457;-77
2020/12/01 01:30:23;;;;;;;24.15;12.13;;;;;;;-1.35;83.28;100436.98;1660917;86;21248;-80
2020/12/01 01:32:51;;;;;;;30.95;13.55;;;;;;;-1.34;83.04;100444.02;1661139;86;21500;-79
2020/12/01 01:35:19;;;;;;;27.93;12.95;;;;;;;-1.32;82.91;100441.11;1661022;86;21112;-79
2020/12/01 01:37:47;;;;;;;34.58;14.85;;;;;;;-1.34;83.02;100441.33;1661147;85;20962;-75
2020/12/01 01:40:23;;;;;;;28.52;13.93;;;;;;;-1.33;83.56;100444.84;1661119;86;21443;-78
2020/12/01 01:42:51;;;;;;;28.30;13.00;;;;;;;-1.37;83.24;100445.80;1660806;86;21136;-81
2020/12/01 01:45:43;;;;;;;26.20;12.75;;;;;;;-1.40;83.16;100451.61;1661443;86;20966;-82
2020/12/01 01:48:27;;;;;;;28.00;13.53;;;;;;;-1.41;83.15;100445.09;1661287;86;20954;-81
2020/12/01 01:51:07;;;;;;;27.15;13.35;;;;;;;-1.40;83.33;100438.14;1661807;85;21040;-79
2020/12/01 01:53:37;;;;;;;27.00;12.88;;;;;;;-1.38;83.27;100436.06;1661209;86;21380;-80
2020/12/01 01:56:05;;;;;;;29.30;13.20;;;;;;;-1.38;83.12;100434.72;1661695;86;21155;-80
2020/12/01 01:58:37;;;;;;;30.65;13.70;;;;;;;-1.39;83.07;100429.55;1640746;86;21555;-81
2020/12/01 02:01:12;;;;;;;30.08;12.75;;;;;;;-1.37;83.19;100435.55;1661403;86;21034;-80
2020/12/01 02:03:52;;;;;;;30.48;13.60;;;;;;;-1.37;83.21;100439.06;1661268;86;21255;-80
2020/12/01 02:06:27;;;;;;;28.05;13.78;;;;;;;-1.36;83.02;100446.10;1661232;86;21397;-82
2020/12/01 02:09:02;;;;;;;23.50;12.80;;;;;;;-1.36;82.88;100452.01;1653267;86;21144;-81
2020/12/01 02:11:31;;;;;;;36.10;13.88;;;;;;;-1.36;82.87;100452.84;1661313;86;21497;-77
2020/12/01 02:14:22;;;;;;;26.97;12.10;;;;;;;-1.36;82.74;100450.14;1661341;86;20938;-77
2020/12/01 02:16:55;;;;;;;22.35;11.28;;;;;;;-1.35;82.70;100456.36;1661424;86;21495;-78
2020/12/01 02:19:26;;;;;;;25.57;12.68;;;;;;;-1.35;82.59;100454.48;1661718;86;21404;-78
2020/12/01 02:21:56;;;;;;;28.07;11.65;;;;;;;-1.30;82.60;100459.75;1661610;86;21139;-78
2020/12/01 02:24:28;;;;;;;25.92;11.45;;;;;;;-1.30;82.58;100465.13;1661408;86;21009;-78
2020/12/01 02:26:59;;;;;;;32.63;11.90;;;;;;;-1.28;82.47;100461.70;1661474;85;21298;-77
2020/12/01 02:29:30;;;;;;;24.32;12.23;;;;;;;-1.28;82.21;100470.61;1661180;86;21603;-78
2020/12/01 02:31:58;;;;;;;28.20;12.03;;;;;;;-1.29;82.12;100474.87;1654778;84;22285;-84
2020/12/01 02:34:39;;;;;;;27.20;12.18;;;;;;;-1.27;82.17;100468.75;1654225;86;21167;-77
2020/12/01 02:37:09;;;;;;;26.45;11.57;;;;;;;-1.26;82.07;100473.09;1654314;86;21113;-76
2020/12/01 02:39:36;;;;;;;25.27;11.25;;;;;;;-1.26;81.89;100473.92;1654185;86;21205;-76
2020/12/01 02:42:08;;;;;;;25.20;11.22;;;;;;;-1.26;81.83;100477.96;1654215;86;21563;-76
2020/12/01 02:44:35;;;;;;;22.87;11.20;;;;;;;-1.23;81.84;100475.36;1654444;86;21405;-76
2020/12/01 02:47:05;;;;;;;26.40;11.45;;;;;;;-1.22;81.72;100474.31;1654136;86;21175;-81
2020/12/01 02:49:33;;;;;;;25.95;12.03;;;;;;;-1.22;81.68;100472.97;1654256;86;21628;-79
2020/12/01 02:52:03;;;;;;;26.25;11.80;;;;;;;-1.22;81.60;100477.01;1632446;86;21109;-74
2020/12/01 02:54:31;;;;;;;29.50;13.13;;;;;;;-1.21;81.64;100482.18;1654304;86;21507;-73
2020/12/01 02:56:59;;;;;;;23.92;10.48;;;;;;;-1.20;81.71;100470.36;1654229;86;21231;-74
2020/12/01 02:59:27;;;;;;;21.05;11.00;;;;;;;-1.17;81.54;100471.28;1654168;86;21171;-72
2020/12/01 03:01:54;;;;;;;28.32;12.65;;;;;;;-1.12;81.40;100467.90;1654154;86;21551;-73
2020/12/01 03:04:22;;;;;;;26.02;12.15;;;;;;;-1.12;81.13;100471.95;1654168;86;21076;-78
2020/12/01 03:06:49;;;;;;;29.23;12.65;;;;;;;-1.08;81.17;100473.98;1654223;86;21057;-79
2020/12/01 03:09:18;;;;;;;25.52;12.47;;;;;;;-1.09;80.91;100473.69;1654173;86;21264;-81
2020/12/01 03:11:47;;;;;;;29.57;13.55;;;;;;;-1.08;80.78;100465.08;1654185;86;21014;-82
2020/12/01 03:14:16;;;;;;;24.92;12.18;;;;;;;-1.10;80.62;100471.20;1654235;86;21563;-81
2020/12/01 03:16:46;;;;;;;27.13;11.28;;;;;;;-1.11;80.62;100474.95;1654257;86;21580;-78
2020/12/01 03:19:14;;;;;;;25.40;11.97;;;;;;;-1.10;80.64;100476.59;1654210;86;21171;-78
2020/12/01 03:21:42;;;;;;;27.60;11.63;;;;;;;-1.13;80.52;100475.16;1654195;86;21516;-79
2020/12/01 03:24:10;;;;;;;23.38;10.95;;;;;;;-1.14;80.51;100478.07;1654108;86;20974;-79
2020/12/01 03:26:37;;;;;;;44.08;11.93;;;;;;;-1.14;80.64;100475.38;1654182;85;21516;-78
2020/12/01 03:29:05;;;;;;;20.43;9.63;;;;;;;-1.11;80.51;100478.47;1654153;86;21038;-79
2020/12/01 03:31:33;;;;;;;21.70;10.88;;;;;;;-1.11;80.24;100476.29;1654036;84;21176;-79
2020/12/01 03:34:01;;;;;;;24.30;10.70;;;;;;;-1.12;80.14;100474.64;1654162;86;21252;-79
2020/12/01 03:36:29;;;;;;;21.70;10.20;;;;;;;-1.12;80.10;100477.33;1654137;86;21080;-79
2020/12/01 03:38:56;;;;;;;23.62;11.18;;;;;;;-1.11;80.20;100472.25;1654161;86;21579;-76
2020/12/01 03:41:24;;;;;;;24.77;10.55;;;;;;;-1.09;80.03;100479.59;1654104;86;21049;-81
2020/12/01 03:43:52;;;;;;;20.68;9.85;;;;;;;-1.09;79.86;100472.86;1654169;86;21096;-79
2020/12/01 03:46:19;;;;;;;24.40;10.43;;;;;;;-1.08;79.76;100470.47;1654170;86;21393;-78
2020/12/01 03:48:48;;;;;;;22.05;9.95;;;;;;;-1.08;79.66;100470.47;1658259;86;21120;-79
2020/12/01 03:51:16;;;;;;;18.82;9.85;;;;;;;-1.09;79.52;100472.86;1657912;86;21029;-80
2020/12/01 03:53:43;;;;;;;24.37;10.30;;;;;;;-1.14;79.34;100476.72;1627735;88;20983;-82
2020/12/01 03:56:11;;;;;;;23.55;10.08;;;;;;;-1.21;79.45;100470.58;1628530;87;21584;-80
2020/12/01 03:58:38;;;;;;;22.77;10.98;;;;;;;-1.22;79.62;100467.58;1628552;87;22284;-76
2020/12/01 04:01:07;;;;;;;23.55;9.73;;;;;;;-1.25;79.57;100470.19;1658212;85;21603;-76
2020/12/01 04:03:34;;;;;;;19.92;9.75;;;;;;;-1.29;79.59;100467.61;1654767;86;21164;-77
2020/12/01 04:06:03;;;;;;;22.58;10.03;;;;;;;-1.29;79.88;100462.75;1648276;86;21093;-79
2020/12/01 04:08:31;;;;;;;22.85;9.58;;;;;;;-1.26;79.85;100465.01;1657669;86;20959;-81
2020/12/01 04:11:02;;;;;;;23.70;10.20;;;;;;;-1.25;80.08;100458.58;1657827;86;21466;-86
2020/12/01 04:13:31;;;;;;;20.62;9.93;;;;;;;-1.22;79.89;100463.54;1657743;86;21104;-80
2020/12/01 04:15:58;;;;;;;19.20;9.25;;;;;;;-1.24;79.79;100457.02;1658090;86;20959;-75
2020/12/01 04:18:26;;;;;;;20.77;9.90;;;;;;;-1.24;79.87;100458.37;1657474;86;21140;-75
2020/12/01 04:20:53;;;;;;;23.45;9.85;;;;;;;-1.28;79.42;100450.93;1657778;85;20999;-83
2020/12/01 04:23:21;;;;;;;21.82;9.50;;;;;;;-1.32;79.30;100455.09;1653047;86;21925;-75
2020/12/01 04:25:48;;;;;;;17.52;8.60;;;;;;;-1.39;78.94;100458.66;1627827;88;21517;-87
2020/12/01 04:28:16;;;;;;;18.20;8.48;;;;;;;-1.46;78.83;100459.72;1657812;86;21028;-82
2020/12/01 04:30:44;;;;;;;22.62;8.65;;;;;;;-1.51;79.04;100464.93;1631526;86;21199;-79
2020/12/01 04:33:11;;;;;;;20.00;10.10;;;;;;;-1.57;78.97;100466.61;1654402;86;21549;-76
2020/12/01 04:35:39;;;;;;;19.75;8.83;;;;;;;-1.64;78.98;100468.50;1682632;85;21524;-85
2020/12/01 04:38:07;;;;;;;21.17;9.15;;;;;;;-1.69;79.10;100471.84;1682639;85;21021;-73
2020/12/01 04:40:37;;;;;;;23.05;10.28;;;;;;;-1.71;79.33;100467.70;1682679;85;21038;-82
2020/12/01 04:43:28;;;;;;;18.20;8.80;;;;;;;-1.76;79.15;100467.55;1682687;85;21030;-75
2020/12/01 04:45:56;;;;;;;22.02;9.00;;;;;;;-1.82;79.00;100464.36;1673244;85;21224;-77
2020/12/01 04:48:49;;;;;;;20.30;9.70;;;;;;;-1.89;78.98;100463.55;1684125;85;21543;-78
2020/12/01 04:51:53;;;;;;;18.50;8.58;;;;;;;-1.92;78.99;100470.70;1684393;85;21571;-77
2020/12/01 04:58:20;;;;;;;16.97;8.10;;;;;;;-2.02;79.03;100476.00;1699981;83;21081;-77
2020/12/01 05:01:05;;;;;;;19.57;8.53;;;;;;;-2.11;78.93;100473.23;1667813;83;21154;-76
2020/12/01 05:04:15;;;;;;;18.25;8.98;;;;;;;-2.20;78.95;100473.66;1716620;83;21203;-77
2020/12/01 05:07:10;;;;;;;22.30;9.10;;;;;;;-2.27;79.06;100475.53;1705988;84;20970;-76
2020/12/01 05:09:43;;;;;;;21.30;9.50;;;;;;;-2.34;79.21;100475.58;1708011;83;21574;-76
2020/12/01 05:12:18;;;;;;;26.48;9.50;;;;;;;-2.37;79.31;100477.34;1687484;83;20962;-77
2020/12/01 05:14:54;;;;;;;21.97;9.00;;;;;;;-2.40;79.24;100479.09;1711174;83;21022;-78
2020/12/01 05:18:06;;;;;;;24.50;10.30;;;;;;;-2.46;79.20;100477.24;1711022;83;21164;-75
2020/12/01 05:20:50;;;;;;;35.33;15.53;;;;;;;-2.52;79.12;100480.24;1704731;83;21524;-77
2020/12/01 05:23:31;;;;;;;57.15;18.82;;;;;;;-2.61;79.14;100479.31;1710610;83;21168;-81
2020/12/01 05:26:06;;;;;;;55.15;18.00;;;;;;;-2.71;79.22;100477.86;1683576;85;21096;-76
2020/12/01 05:28:53;;;;;;;32.13;13.85;;;;;;;-2.77;79.45;100479.20;1724583;81;21591;-75
2020/12/01 05:31:25;;;;;;;30.88;11.83;;;;;;;-2.85;79.64;100482.09;1707622;84;21476;-75
2020/12/01 05:34:00;;;;;;;30.97;12.55;;;;;;;-2.92;79.82;100486.14;1708172;83;20970;-76
2020/12/01 05:36:32;;;;;;;45.28;14.43;;;;;;;-2.95;80.04;100483.86;1709639;84;21021;-76
2020/12/01 05:39:22;;;;;;;48.13;16.15;;;;;;;-2.97;80.26;100481.90;1709571;84;21057;-79
2020/12/01 05:42:09;;;;;;;68.42;18.92;;;;;;;-2.94;80.48;100473.43;1709630;84;20900;-79
2020/12/01 05:44:36;;;;;;;76.12;22.70;;;;;;;-2.94;80.57;100477.46;1709265;83;21594;-75
2020/12/01 05:47:16;;;;;;;65.20;21.40;;;;;;;-2.94;80.56;100476.63;1689382;83;21064;-76
2020/12/01 05:49:52;;;;;;;68.10;22.35;;;;;;;-2.97;80.53;100480.55;1711326;83;21168;-75
2020/12/01 05:52:28;;;;;;;66.15;21.15;;;;;;;-2.96;80.62;100488.93;1715104;83;20959;-76
2020/12/01 05:55:24;;;;;;;65.03;21.23;;;;;;;-2.96;80.78;100486.23;1704589;84;21622;-75
2020/12/01 05:58:12;;;;;;;76.45;21.02;;;;;;;-2.95;80.76;100483.04;1701213;84;21203;-75
2020/12/01 06:00:43;;;;;;;62.70;21.87;;;;;;;-2.96;80.84;100492.13;1701034;83;21085;-79
2020/12/01 06:03:32;;;;;;;52.23;17.05;;;;;;;-2.95;80.85;100496.47;1690295;83;21093;-78
2020/12/01 06:06:02;;;;;;;47.23;15.55;;;;;;;-2.96;80.93;100496.98;1693610;84;21081;-76
2020/12/01 06:08:59;;;;;;;32.88;13.20;;;;;;;-2.93;81.06;100499.27;1676068;84;21473;-79
2020/12/01 06:11:51;;;;;;;30.08;12.63;;;;;;;-2.94;80.88;100503.50;1671051;84;21214;-78
2020/12/01 06:14:41;;;;;;;27.62;11.53;;;;;;;-2.93;81.13;100507.84;1672367;85;21082;-77
2020/12/01 06:17:15;;;;;;;26.57;10.53;;;;;;;-2.92;81.04;100508.98;1666117;85;21085;-76
2020/12/01 06:20:05;;;;;;;26.37;11.97;;;;;;;-2.93;80.90;100508.67;1672821;84;21053;-77
2020/12/01 06:23:08;;;;;;;22.87;10.78;;;;;;;-2.95;80.89;100509.91;1678317;83;21583;-77
2020/12/01 06:25:57;;;;;;;32.50;11.40;;;;;;;-2.97;80.92;100514.14;1672224;85;21221;-78
2020/12/01 06:28:46;;;;;;;34.05;12.40;;;;;;;-3.02;81.04;100510.72;1672102;84;21588;-77
2020/12/01 06:31:50;;;;;;;25.43;11.70;;;;;;;-3.05;81.10;100515.16;1671625;84;21038;-78
2020/12/01 06:34:52;;;;;;;27.98;11.93;;;;;;;-3.09;81.27;100500.48;1671371;83;21144;-73
2020/12/01 06:37:37;;;;;;;34.05;12.43;;;;;;;-3.13;81.48;100510.48;1669973;84;21098;-75
2020/12/01 06:40:18;;;;;;;38.28;13.10;;;;;;;-3.16;81.65;100502.83;1673832;84;21261;-74
2020/12/01 06:42:52;;;;;;;31.30;13.53;;;;;;;-3.16;81.94;100497.46;1693975;83;21188;-73
2020/12/01 06:45:33;;;;;;;27.75;11.73;;;;;;;-3.14;82.18;100504.28;1709160;84;20959;-75
2020/12/01 06:48:24;;;;;;;31.57;12.07;;;;;;;-3.11;82.29;100505.22;1703060;83;21069;-74
2020/12/01 06:50:54;;;;;;;29.20;11.85;;;;;;;-3.09;82.26;100510.39;1717419;83;21081;-75
2020/12/01 06:53:31;;;;;;;30.25;11.12;;;;;;;-3.07;82.35;100511.02;1708761;84;21212;-73
2020/12/01 06:56:06;;;;;;;27.98;12.63;;;;;;;-3.03;82.45;100513.61;1690321;83;21086;-73
2020/12/01 06:58:40;;;;;;;30.37;12.65;;;;;;;-2.97;82.49;100522.72;1707942;83;21085;-76
2020/12/01 07:01:27;;;;;;;28.87;13.68;;;;;;;-2.92;82.59;100517.05;1712100;83;21072;-76
2020/12/01 07:04:19;;;;;;;31.52;13.95;;;;;;;-2.81;82.74;100516.41;1703897;83;21029;-76
2020/12/01 07:06:58;;;;;;;27.95;12.78;;;;;;;-2.70;82.85;100509.08;1707188;84;21197;-75
2020/12/01 07:09:44;;;;;;;35.98;13.90;;;;;;;-2.53;82.83;100512.20;1707633;84;21164;-74
2020/12/01 07:12:46;;;;;;;29.77;13.65;;;;;;;-2.37;82.39;100509.61;1688256;83;21101;-78
2020/12/01 07:15:18;;;;;;;30.23;12.75;;;;;;;-2.24;81.96;100510.91;1703339;84;21088;-75
2020/12/01 07:17:51;;;;;;;27.80;11.70;;;;;;;-2.09;81.70;100514.20;1708653;83;21176;-69
2020/12/01 07:20:36;;;;;;;26.87;11.28;;;;;;;-1.97;81.09;100514.91;1708632;83;21218;-74
2020/12/01 07:23:24;;;;;;;17.45;8.60;;;;;;;-1.89;80.69;100514.17;1722513;83;21088;-75
2020/12/01 07:26:28;;;;;;;20.10;8.63;;;;;;;-1.76;80.33;100520.86;1716612;83;20954;-75
2020/12/01 07:29:17;;;;;;;25.05;10.45;;;;;;;-1.66;79.95;100513.14;1717291;83;21164;-74
2020/12/01 07:31:45;;;;;;;34.55;12.90;;;;;;;-1.54;79.53;100516.52;1700718;83;21132;-79
2020/12/01 07:34:27;;;;;;;30.82;13.80;;;;;;;-1.45;79.20;100517.41;1717511;83;21499;-80
2020/12/01 07:37:17;;;;;;;43.98;16.65;;;;;;;-1.40;78.86;100520.30;1717411;83;21073;-71
2020/12/01 07:39:55;;;;;;;38.75;16.87;;;;;;;-1.35;78.49;100516.44;1707740;84;21038;-72
2020/12/01 07:42:25;;;;;;;42.20;19.12;;;;;;;-1.34;78.21;100511.36;1709534;84;21126;-70
2020/12/01 07:44:55;;;;;;;41.23;18.12;;;;;;;-1.31;77.97;100520.05;1709527;84;21057;-78
2020/12/01 07:47:25;;;;;;;36.85;17.60;;;;;;;-1.30;77.70;100510.41;1709356;84;21374;-71
2020/12/01 07:49:58;;;;;;;38.55;16.55;;;;;;;-1.27;77.53;100512.67;1715184;83;21147;-72
2020/12/01 07:52:36;;;;;;;46.13;19.23;;;;;;;-1.24;77.24;100517.64;1709537;84;21001;-72
2020/12/01 07:55:10;;;;;;;37.42;17.20;;;;;;;-1.17;77.18;100518.95;1690208;84;21047;-71
2020/12/01 07:57:38;;;;;;;42.20;17.23;;;;;;;-1.00;77.18;100511.98;1669764;85;21569;-74
2020/12/01 08:00:05;;;;;;;36.90;14.73;;;;;;;-0.78;76.31;100520.56;1669030;86;21379;-81
2020/12/01 08:02:35;;;;;;;34.33;13.72;;;;;;;-0.65;75.66;100516.95;1677200;85;21158;-74
2020/12/01 08:05:07;;;;;;;34.03;13.62;;;;;;;-0.58;74.80;100517.20;1679149;85;21078;-72
2020/12/01 08:07:35;;;;;;;35.55;14.05;;;;;;;-0.54;74.57;100516.21;1688674;85;21082;-71
2020/12/01 08:10:13;;;;;;;37.88;14.73;;;;;;;-0.47;74.51;100519.68;1680887;85;21503;-70
2020/12/01 08:12:45;;;;;;;42.38;15.88;;;;;;;-0.39;73.74;100516.19;1647515;86;21360;-86
2020/12/01 08:15:21;;;;;;;32.50;14.28;;;;;;;-0.20;73.72;100514.36;1664641;85;20952;-72
2020/12/01 08:17:50;;;;;;;33.83;14.05;;;;;;;0.02;73.08;100516.62;1663998;85;21069;-73
2020/12/01 08:20:23;;;;;;;34.33;15.28;;;;;;;0.32;72.37;100510.80;1664222;85;21134;-72
2020/12/01 08:22:59;;;;;;;32.25;13.95;;;;;;;0.63;71.54;100514.66;1664803;85;21301;-72
2020/12/01 08:25:29;;;;;;;30.77;14.60;;;;;;;1.05;70.68;100513.91;1670607;85;21150;-74
2020/12/01 08:28:19;;;;;;;26.52;13.43;;;;;;;1.30;69.18;100512.67;1666338;84;38815;-73
2020/12/01 08:30:56;;;;;;;31.40;13.32;;;;;;;1.35;68.18;100511.16;1680842;85;21024;-72
2020/12/01 08:33:34;;;;;;;40.90;18.40;;;;;;;1.19;67.41;100514.81;1675552;85;20969;-72
2020/12/01 08:36:15;;;;;;;33.73;15.18;;;;;;;0.98;67.36;100514.00;1681855;84;20957;-71
2020/12/01 08:38:57;;;;;;;34.73;14.25;;;;;;;0.89;67.72;100507.27;1668527;85;21390;-72
2020/12/01 08:41:47;;;;;;;33.58;14.55;;;;;;;0.84;68.17;100503.89;1646189;84;21162;-78
2020/12/01 08:44:38;;;;;;;27.07;12.13;;;;;;;0.74;67.87;100507.67;1681034;85;21047;-71
2020/12/01 08:47:06;;;;;;;26.52;12.80;;;;;;;0.63;68.09;100505.73;1679451;85;21600;-74
2020/12/01 08:49:44;;;;;;;23.02;11.83;;;;;;;0.48;68.76;100503.45;1667101;85;21214;-77
2020/12/01 08:52:35;;;;;;;26.42;13.40;;;;;;;0.43;69.29;100503.82;1659396;85;21198;-73
2020/12/01 08:55:24;;;;;;;;;;;;;;;0.37;69.48;100506.08;1666433;85;21233;-72
2020/12/01 08:58:16;;;;;;;25.17;12.58;;;;;;;0.27;69.46;100498.50;1670454;84;20231;-76
2020/12/01 09:01:03;;;;;;;32.75;13.32;;;;;;;0.19;70.09;100501.50;1668243;85;21104;-74
2020/12/01 09:03:31;;;;;;;25.40;12.30;;;;;;;0.10;70.31;100494.21;1666406;85;20981;-79
2020/12/01 09:06:01;;;;;;;24.77;12.40;;;;;;;0.01;70.71;100490.16;1666316;86;22424;-74
2020/12/01 09:11:42;;;;;;;;;;;;;;;0.00;71.29;100500.68;1668783;86;20923;-74
2020/12/01 09:22:32;;;;;;;23.22;12.18;;;;;;;0.02;72.13;100481.53;1841946;78;22678;-88
2020/12/01 09:25:23;;;;;;;23.42;12.00;;;;;;;0.00;72.33;100483.93;1798101;78;21443;-84
2020/12/01 09:27:54;;;;;;;28.05;12.95;;;;;;;-0.04;72.46;100483.28;1826177;78;21027;-82
2020/12/01 09:30:32;;;;;;;31.80;14.20;;;;;;;-0.10;72.69;100478.25;1808807;79;21565;-86
2020/12/01 09:33:00;;;;;;;30.27;13.50;;;;;;;-0.12;73.30;100482.22;1808842;79;21066;-85
2020/12/01 09:35:28;;;;;;;38.63;13.70;;;;;;;-0.16;73.62;100485.89;1808896;79;21347;-79
2020/12/01 09:37:56;;;;;;;32.73;14.73;;;;;;;-0.17;74.01;100476.14;1808604;79;20916;-79
2020/12/01 09:40:26;;;;;;;30.95;13.75;;;;;;;-0.15;74.20;100475.39;1808654;79;21015;-76
2020/12/01 09:42:58;;;;;;;30.05;13.70;;;;;;;-0.12;74.26;100466.85;1808615;79;20987;-78
2020/12/01 09:45:29;;;;;;;28.80;12.95;;;;;;;-0.05;74.33;100470.31;1808452;79;21003;-79
2020/12/01 09:48:04;;;;;;;;;;;;;;;0.03;74.37;100469.69;1811315;79;21365;-79
2020/12/01 09:50:34;;;;;;;31.90;12.27;;;;;;;0.10;74.37;100467.21;1808217;79;20128;-77
2020/12/01 10:09:25;;;;;;;33.35;13.90;;;;;;;0.39;74.24;100461.58;1809380;79;21493;-80
2020/12/01 10:25:47;;;;;;;32.35;13.15;;;;;;;0.15;75.69;100449.81;1876165;76;22852;-79
2020/12/01 10:36:05;;;;;;;29.07;12.95;;;;;;;-0.03;77.29;100449.31;1765334;81;21559;-79
2020/12/01 10:38:33;;;;;;;25.88;13.38;;;;;;;-0.03;77.59;100449.31;1761652;81;20926;-80
2020/12/01 10:41:01;;;;;;;25.12;12.60;;;;;;;-0.01;77.93;100441.81;1758475;81;21025;-78
2020/12/01 10:43:29;;;;;;;29.55;14.03;;;;;;;-0.01;78.00;100445.05;1740759;81;21626;-78
2020/12/01 10:45:57;;;;;;;35.70;15.65;;;;;;;-0.03;78.18;100443.92;1771076;80;20902;-80
2020/12/01 10:48:24;;;;;;;35.78;14.10;;;;;;;-0.04;78.62;100442.79;1799290;79;21545;-78
2020/12/01 10:50:53;;;;;;;36.65;14.25;;;;;;;-0.04;78.97;100437.39;1794767;79;21162;-81
2020/12/01 10:53:21;;;;;;;27.90;12.93;;;;;;;-0.01;79.14;100436.42;1758040;81;20988;-79
2020/12/01 10:55:48;;;;;;;33.10;14.47;;;;;;;0.03;79.41;100431.89;1758047;81;21439;-79
2020/12/01 10:58:18;;;;;;;33.38;13.30;;;;;;;0.06;79.47;100439.02;1790839;80;21477;-80
2020/12/01 11:00:46;;;;;;;28.87;12.65;;;;;;;0.09;79.63;100441.27;1790965;80;20900;-78
2020/12/01 11:03:13;;;;;;;29.27;12.13;;;;;;;0.11;79.56;100432.41;1790879;80;21062;-80
2020/12/01 11:05:41;;;;;;;26.65;13.35;;;;;;;0.12;79.32;100427.31;1790844;80;21577;-79
2020/12/01 11:08:08;;;;;;;32.80;12.68;;;;;;;0.11;79.32;100427.53;1790869;80;21220;-78
2020/12/01 11:10:36;;;;;;;31.60;11.78;;;;;;;0.11;79.53;100425.66;1790826;80;21062;-78
2020/12/01 11:13:04;;;;;;;26.85;12.23;;;;;;;0.17;79.60;100422.06;1790892;80;20948;-78
2020/12/01 11:15:32;;;;;;;24.75;12.13;;;;;;;0.21;79.56;100415.68;1790843;80;20951;-79
2020/12/01 11:18:00;;;;;;;26.40;11.78;;;;;;;0.24;79.74;100413.36;1790976;80;20955;-79
2020/12/01 11:20:27;;;;;;;23.05;11.68;;;;;;;0.28;79.60;100411.84;1790939;80;21204;-80
2020/12/01 11:22:55;;;;;;;24.40;11.25;;;;;;;0.27;79.54;100413.42;1790796;80;22044;-80
2020/12/01 11:25:23;;;;;;;22.70;11.55;;;;;;;0.24;79.70;100409.30;1790715;80;20928;-79
2020/12/01 11:27:50;;;;;;;24.77;11.40;;;;;;;0.21;79.69;100411.63;1790824;80;21132;-79
2020/12/01 11:30:20;;;;;;;21.52;10.85;;;;;;;0.24;80.03;100417.93;1790884;80;21035;-79
2020/12/01 11:32:47;;;;;;;23.87;11.20;;;;;;;0.25;80.08;100412.83;1790886;80;21170;-79
2020/12/01 11:35:16;;;;;;;27.13;12.10;;;;;;;0.31;80.40;100411.39;1790598;80;20948;-79
2020/12/01 11:37:44;;;;;;;27.35;13.22;;;;;;;0.37;80.53;100419.11;1790270;80;20944;-79
2020/12/01 11:40:11;;;;;;;30.92;12.98;;;;;;;0.39;80.51;100412.95;1790246;80;21039;-79
2020/12/01 11:42:39;;;;;;;34.58;13.40;;;;;;;0.44;80.55;100413.63;1790251;80;21011;-79
2020/12/01 11:45:11;;;;;;;26.60;11.97;;;;;;;0.51;80.62;100408.96;1790282;80;22359;-79
2020/12/01 11:47:38;;;;;;;26.80;12.45;;;;;;;0.56;80.30;100415.85;1758733;81;21009;-79
2020/12/01 11:50:06;;;;;;;29.10;13.32;;;;;;;0.52;80.08;100414.66;1790259;80;20948;-80
2020/12/01 11:52:34;;;;;;;28.95;14.07;;;;;;;0.46;79.92;100415.57;1790282;80;21517;-80
2020/12/01 11:55:05;;;;;;;31.52;12.93;;;;;;;0.41;80.29;100418.95;1788402;80;20936;-79
2020/12/01 11:57:33;;;;;;;30.08;13.55;;;;;;;0.42;80.47;100416.55;1790351;80;21234;-79
2020/12/01 12:00:00;;;;;;;30.57;13.22;;;;;;;0.41;80.53;100414.08;1790291;80;20999;-79
2020/12/01 12:02:28;;;;;;;26.07;12.73;;;;;;;0.38;80.45;100415.36;1790347;80;21011;-79
2020/12/01 12:04:56;;;;;;;26.42;12.28;;;;;;;0.31;80.42;100412.75;1790356;80;20939;-79
2020/12/01 12:07:24;;;;;;;28.70;13.30;;;;;;;0.29;80.96;100414.02;1790424;80;21497;-78
2020/12/01 12:09:53;;;;;;;24.85;13.08;;;;;;;0.32;80.94;100407.64;1790310;80;21003;-80
2020/12/01 12:12:21;;;;;;;24.92;12.53;;;;;;;0.28;80.89;100408.32;1790320;80;21006;-79
2020/12/01 12:14:49;;;;;;;24.15;10.40;;;;;;;0.28;81.25;100406.97;1790297;80;21596;-80
2020/12/01 12:17:16;;;;;;;24.18;11.73;;;;;;;0.31;81.34;100413.27;1790366;80;21486;-80
2020/12/01 12:19:44;;;;;;;20.68;10.70;;;;;;;0.35;81.49;100409.06;1790357;80;21051;-80
2020/12/01 12:22:12;;;;;;;17.50;9.40;;;;;;;0.43;81.26;100407.92;1790333;80;21198;-81
2020/12/01 12:24:40;;;;;;;20.97;9.63;;;;;;;0.43;80.49;100406.05;1757264;81;21090;-80
2020/12/01 12:27:07;;;;;;;19.30;9.00;;;;;;;0.37;80.31;100394.80;1759810;80;21234;-80
2020/12/01 12:29:35;;;;;;;15.45;8.63;;;;;;;0.30;80.41;100400.81;1790309;80;20934;-79
2020/12/01 12:32:03;;;;;;;16.77;8.30;;;;;;;0.28;80.16;100405.63;1750792;82;21061;-79
2020/12/01 12:34:30;;;;;;;20.10;10.18;;;;;;;0.19;80.26;100398.36;1790287;79;21133;-79